sensor_id;sensor_type;location;lat;lon;timestamp;pressure;altitude;pressure_sealevel;temperature;humidity
44996;BME280;30729;49.486;10.792;2022-10-16T00:02:20;97559.31;;;15.65;100.00
44996;BME280;30729;49.486;10.792;2022-10-16T00:04:46;97557.75;;;15.64;100.00
44996;BME280;30729;49.486;10.792;2022-10-16T00:07:12;97560.28;;;15.61;100.00
44996;BME280;30729;49.486;10.792;2022-10-16T00:09:37;97569.22;;;15.60;100.00
44996;BME280;30729;49.486;10.792;2022-10-16T00:12:02;97566.19;;;15.64;100.00
44996;BME280;30729;49.486;10.792;2022-10-16T00:14:29;97569.78;;;15.64;100.00
44996;BME280;30729;49.486;10.792;2022-10-16T00:16:55;97574.31;;;15.61;100.00
44996;BME280;30729;49.486;10.792;2022-10-16T00:19:20;97577.63;;;15.54;100.00
44996;BME280;30729;49.486;10.792;2022-10-16T00:21:45;97575.59;;;15.55;100.00
44996;BME280;30729;49.486;10.792;2022-10-16T00:24:11;97574.53;;;15.52;100.00
44996;BME280;30729;49.486;10.792;2022-10-16T00:26:37;97579.63;;;15.48;100.00
44996;BME280;30729;49.486;10.792;2022-10-16T00:29:04;97577.09;;;15.50;100.00
44996;BME280;30729;49.486;10.792;2022-10-16T00:31:29;97585.00;;;15.52;100.00
44996;BME280;30729;49.486;10.792;2022-10-16T00:33:55;97579.63;;;15.48;100.00
44996;BME280;30729;49.486;10.792;2022-10-16T00:36:23;97572.00;;;15.54;100.00
44996;BME280;30729;49.486;10.792;2022-10-16T00:38:54;97569.13;;;15.43;100.00
44996;BME280;30729;49.486;10.792;2022-10-16T00:41:21;97572.16;;;15.40;100.00
44996;BME280;30729;49.486;10.792;2022-10-16T00:43:52;97574.72;;;15.38;100.00
44996;BME280;30729;49.486;10.792;2022-10-16T00:46:25;97579.28;;;15.35;100.00
44996;BME280;30729;49.486;10.792;2022-10-16T00:49:12;97569.88;;;15.38;100.00
44996;BME280;30729;49.486;10.792;2022-10-16T00:51:40;97571.41;;;15.39;100.00
44996;BME280;30729;49.486;10.792;2022-10-16T00:54:11;97579.06;;;15.39;100.00
44996;BME280;30729;49.486;10.792;2022-10-16T00:56:38;97572.22;;;15.45;100.00
44996;BME280;30729;49.486;10.792;2022-10-16T00:59:10;97578.09;;;15.53;100.00
44996;BME280;30729;49.486;10.792;2022-10-16T01:01:39;97577.34;;;15.52;100.00
44996;BME280;30729;49.486;10.792;2022-10-16T01:04:04;97571.47;;;15.50;100.00
44996;BME280;30729;49.486;10.792;2022-10-16T01:12:19;97588.75;;;15.38;100.00
44996;BME280;30729;49.486;10.792;2022-10-16T01:14:54;97584.22;;;15.46;100.00
44996;BME280;30729;49.486;10.792;2022-10-16T01:20:08;97582.22;;;15.57;100.00
44996;BME280;30729;49.486;10.792;2022-10-16T01:22:48;97579.63;;;15.48;100.00
44996;BME280;30729;49.486;10.792;2022-10-16T01:25:30;97584.97;;;15.46;100.00
44996;BME280;30729;49.486;10.792;2022-10-16T01:27:57;97587.28;;;15.53;100.00
44996;BME280;30729;49.486;10.792;2022-10-16T01:30:30;97591.59;;;15.49;100.00
44996;BME280;30729;49.486;10.792;2022-10-16T01:33:03;97590.06;;;15.48;100.00
44996;BME280;30729;49.486;10.792;2022-10-16T01:35:42;97587.56;;;15.50;100.00
44996;BME280;30729;49.486;10.792;2022-10-16T01:38:22;97593.41;;;15.52;100.00
44996;BME280;30729;49.486;10.792;2022-10-16T01:40:54;97595.91;;;15.44;100.00
44996;BME280;30729;49.486;10.792;2022-10-16T01:43:27;97597.94;;;15.38;100.00
44996;BME280;30729;49.486;10.792;2022-10-16T01:45:57;97600.75;;;15.38;100.00
44996;BME280;30729;49.486;10.792;2022-10-16T01:48:24;97607.34;;;15.35;100.00
44996;BME280;30729;49.486;10.792;2022-10-16T01:51:01;97616.25;;;15.33;100.00
44996;BME280;30729;49.486;10.792;2022-10-16T01:53:29;97607.09;;;15.33;100.00
44996;BME280;30729;49.486;10.792;2022-10-16T01:55:58;97608.31;;;15.32;100.00
44996;BME280;30729;49.486;10.792;2022-10-16T01:58:25;97615.75;;;15.35;100.00
44996;BME280;30729;49.486;10.792;2022-10-16T02:00:51;97606.06;;;15.36;100.00
44996;BME280;30729;49.486;10.792;2022-10-16T02:03:19;97604.34;;;15.44;100.00
44996;BME280;30729;49.486;10.792;2022-10-16T02:05:56;97606.16;;;15.47;100.00
44996;BME280;30729;49.486;10.792;2022-10-16T02:08:25;97606.19;;;15.53;100.00
44996;BME280;30729;49.486;10.792;2022-10-16T02:10:54;97618.22;;;15.59;100.00
44996;BME280;30729;49.486;10.792;2022-10-16T02:13:28;97607.00;;;15.59;100.00
44996;BME280;30729;49.486;10.792;2022-10-16T02:15:54;97608.28;;;15.64;100.00
44996;BME280;30729;49.486;10.792;2022-10-16T02:18:20;97611.91;;;15.70;100.00
44996;BME280;30729;49.486;10.792;2022-10-16T02:20:54;97606.06;;;15.68;100.00
44996;BME280;30729;49.486;10.792;2022-10-16T02:26:43;97607.25;;;15.61;100.00
44996;BME280;30729;49.486;10.792;2022-10-16T02:29:14;97606.72;;;15.62;100.00
44996;BME280;30729;49.486;10.792;2022-10-16T02:31:45;97605.72;;;15.60;100.00
44996;BME280;30729;49.486;10.792;2022-10-16T02:34:13;97608.22;;;15.52;100.00
44996;BME280;30729;49.486;10.792;2022-10-16T02:36:40;97603.69;;;15.60;100.00
44996;BME280;30729;49.486;10.792;2022-10-16T02:39:07;97610.06;;;15.61;100.00
44996;BME280;30729;49.486;10.792;2022-10-16T02:41:33;97595.97;;;15.50;100.00
44996;BME280;30729;49.486;10.792;2022-10-16T02:43:59;97607.91;;;15.45;100.00
44996;BME280;30729;49.486;10.792;2022-10-16T02:46:24;97598.25;;;15.51;100.00
44996;BME280;30729;49.486;10.792;2022-10-16T02:48:50;97599.78;;;15.47;100.00
44996;BME280;30729;49.486;10.792;2022-10-16T02:51:15;97613.78;;;15.41;100.00
44996;BME280;30729;49.486;10.792;2022-10-16T02:53:40;97617.59;;;15.44;100.00
44996;BME280;30729;49.486;10.792;2022-10-16T02:56:06;97610.69;;;15.39;100.00
44996;BME280;30729;49.486;10.792;2022-10-16T02:58:31;97619.84;;;15.34;100.00
44996;BME280;30729;49.486;10.792;2022-10-16T03:00:57;97618.31;;;15.33;100.00
44996;BME280;30729;49.486;10.792;2022-10-16T03:03:22;97618.31;;;15.33;100.00
44996;BME280;30729;49.486;10.792;2022-10-16T03:05:47;97622.09;;;15.30;100.00
44996;BME280;30729;49.486;10.792;2022-10-16T03:08:13;97620.06;;;15.30;100.00
44996;BME280;30729;49.486;10.792;2022-10-16T03:10:39;97625.91;;;15.27;100.00
44996;BME280;30729;49.486;10.792;2022-10-16T03:13:04;97622.84;;;15.25;100.00
44996;BME280;30729;49.486;10.792;2022-10-16T03:15:29;97618.44;;;15.18;100.00
44996;BME280;30729;49.486;10.792;2022-10-16T03:17:57;97621.53;;;15.20;100.00
44996;BME280;30729;49.486;10.792;2022-10-16T03:20:23;97621.84;;;15.28;100.00
44996;BME280;30729;49.486;10.792;2022-10-16T03:22:49;97621.53;;;15.20;100.00
44996;BME280;30729;49.486;10.792;2022-10-16T03:25:14;97631.88;;;15.08;100.00
44996;BME280;30729;49.486;10.792;2022-10-16T03:27:39;97631.13;;;15.08;100.00
44996;BME280;30729;49.486;10.792;2022-10-16T03:30:05;97638.47;;;15.05;100.00
44996;BME280;30729;49.486;10.792;2022-10-16T03:32:31;97627.25;;;15.05;100.00
44996;BME280;30729;49.486;10.792;2022-10-16T03:34:56;97621.50;;;15.15;100.00
44996;BME280;30729;49.486;10.792;2022-10-16T03:37:22;97623.28;;;15.18;100.00
44996;BME280;30729;49.486;10.792;2022-10-16T03:39:47;97617.22;;;15.25;100.00
44996;BME280;30729;49.486;10.792;2022-10-16T03:42:12;97622.81;;;15.19;100.00
44996;BME280;30729;49.486;10.792;2022-10-16T03:44:38;97617.41;;;15.16;100.00
44996;BME280;30729;49.486;10.792;2022-10-16T03:47:03;97620.56;;;15.29;100.00
44996;BME280;30729;49.486;10.792;2022-10-16T03:49:29;97620.06;;;15.30;100.00
44996;BME280;30729;49.486;10.792;2022-10-16T03:51:54;97617.00;;;15.28;100.00
44996;BME280;30729;49.486;10.792;2022-10-16T03:54:20;97617.53;;;15.32;100.00
44996;BME280;30729;49.486;10.792;2022-10-16T03:56:47;97624.19;;;15.35;100.00
44996;BME280;30729;49.486;10.792;2022-10-16T03:59:12;97631.06;;;15.34;100.00
44996;BME280;30729;49.486;10.792;2022-10-16T04:01:38;97643.81;;;15.35;100.00
44996;BME280;30729;49.486;10.792;2022-10-16T04:04:03;97643.81;;;15.35;100.00
44996;BME280;30729;49.486;10.792;2022-10-16T04:06:28;97651.22;;;15.32;100.00
44996;BME280;30729;49.486;10.792;2022-10-16T04:08:54;97650.19;;;15.35;100.00
44996;BME280;30729;49.486;10.792;2022-10-16T04:11:19;97640.28;;;15.40;100.00
44996;BME280;30729;49.486;10.792;2022-10-16T04:13:44;97642.28;;;15.34;100.00
44996;BME280;30729;49.486;10.792;2022-10-16T04:16:10;97651.25;;;15.38;100.00
44996;BME280;30729;49.486;10.792;2022-10-16T04:18:35;97648.97;;;15.42;100.00
44996;BME280;30729;49.486;10.792;2022-10-16T04:21:05;97638.25;;;15.41;100.00
44996;BME280;30729;49.486;10.792;2022-10-16T04:23:31;97653.50;;;15.34;100.00
44996;BME280;30729;49.486;10.792;2022-10-16T04:25:57;97644.09;;;15.37;100.00
44996;BME280;30729;49.486;10.792;2022-10-16T04:28:22;97646.91;;;15.37;100.00
44996;BME280;30729;49.486;10.792;2022-10-16T04:30:48;97643.28;;;15.31;100.00
44996;BME280;30729;49.486;10.792;2022-10-16T04:33:13;97651.75;;;15.36;100.00
44996;BME280;30729;49.486;10.792;2022-10-16T04:35:38;97646.81;;;15.26;100.00
44996;BME280;30729;49.486;10.792;2022-10-16T04:38:04;97648.63;;;15.29;100.00
44996;BME280;30729;49.486;10.792;2022-10-16T04:40:29;97639.44;;;15.28;100.00
44996;BME280;30729;49.486;10.792;2022-10-16T04:42:58;97640.75;;;15.33;100.00
44996;BME280;30729;49.486;10.792;2022-10-16T04:45:24;97642.53;;;15.36;100.00
44996;BME280;30729;49.486;10.792;2022-10-16T04:47:49;97663.75;;;15.37;100.00
44996;BME280;30729;49.486;10.792;2022-10-16T04:50:15;97660.44;;;15.39;100.00
44996;BME280;30729;49.486;10.792;2022-10-16T04:52:40;97658.69;;;15.41;100.00
44996;BME280;30729;49.486;10.792;2022-10-16T04:55:06;97655.03;;;15.35;100.00
44996;BME280;30729;49.486;10.792;2022-10-16T04:57:32;97651.75;;;15.36;100.00
44996;BME280;30729;49.486;10.792;2022-10-16T04:59:58;97655.81;;;15.35;100.00
44996;BME280;30729;49.486;10.792;2022-10-16T05:02:24;97654.78;;;15.33;100.00
44996;BME280;30729;49.486;10.792;2022-10-16T05:04:50;97648.88;;;15.31;100.00
44996;BME280;30729;49.486;10.792;2022-10-16T05:07:16;97658.72;;;15.15;100.00
44996;BME280;30729;49.486;10.792;2022-10-16T05:09:41;97661.03;;;15.17;100.00
44996;BME280;30729;49.486;10.792;2022-10-16T05:12:06;97657.41;;;15.10;100.00
44996;BME280;30729;49.486;10.792;2022-10-16T05:14:32;97665.84;;;15.10;100.00
44996;BME280;30729;49.486;10.792;2022-10-16T05:16:59;97665.75;;;15.05;100.00
44996;BME280;30729;49.486;10.792;2022-10-16T05:19:24;97672.69;;;15.09;100.00
44996;BME280;30729;49.486;10.792;2022-10-16T05:21:50;97679.31;;;15.06;100.00
44996;BME280;30729;49.486;10.792;2022-10-16T05:24:15;97680.63;;;15.11;100.00
44996;BME280;30729;49.486;10.792;2022-10-16T05:26:41;97684.06;;;15.00;100.00
44996;BME280;30729;49.486;10.792;2022-10-16T05:29:06;97693.53;;;15.03;100.00
44996;BME280;30729;49.486;10.792;2022-10-16T05:31:31;97695.84;;;15.04;100.00
44996;BME280;30729;49.486;10.792;2022-10-16T05:34:00;97699.66;;;15.01;100.00
44996;BME280;30729;49.486;10.792;2022-10-16T05:36:26;97704.25;;;15.04;100.00
44996;BME280;30729;49.486;10.792;2022-10-16T05:38:51;97720.28;;;14.98;100.00
44996;BME280;30729;49.486;10.792;2022-10-16T05:41:17;97705.53;;;15.03;100.00
44996;BME280;30729;49.486;10.792;2022-10-16T05:43:49;97708.13;;;15.07;100.00
44996;BME280;30729;49.486;10.792;2022-10-16T05:46:15;97711.41;;;15.05;100.00
44996;BME280;30729;49.486;10.792;2022-10-16T05:48:40;97720.09;;;15.07;100.00
44996;BME280;30729;49.486;10.792;2022-10-16T05:51:07;97712.72;;;15.10;100.00
44996;BME280;30729;49.486;10.792;2022-10-16T05:53:36;97713.78;;;15.13;100.00
44996;BME280;30729;49.486;10.792;2022-10-16T05:56:02;97713.06;;;15.18;100.00
44996;BME280;30729;49.486;10.792;2022-10-16T05:58:35;97711.53;;;15.17;100.00
44996;BME280;30729;49.486;10.792;2022-10-16T06:01:05;97719.13;;;15.10;100.00
44996;BME280;30729;49.486;10.792;2022-10-16T06:03:30;97714.28;;;15.11;100.00
44996;BME280;30729;49.486;10.792;2022-10-16T06:05:56;97720.69;;;15.17;100.00
44996;BME280;30729;49.486;10.792;2022-10-16T06:08:22;97722.75;;;15.17;100.00
44996;BME280;30729;49.486;10.792;2022-10-16T06:10:49;97725.59;;;15.22;100.00
44996;BME280;30729;49.486;10.792;2022-10-16T06:13:25;97717.94;;;15.23;100.00
44996;BME280;30729;49.486;10.792;2022-10-16T06:15:50;97715.13;;;15.23;100.00
44996;BME280;30729;49.486;10.792;2022-10-16T06:18:15;97706.03;;;15.28;100.00
44996;BME280;30729;49.486;10.792;2022-10-16T06:20:41;97707.56;;;15.29;100.00
44996;BME280;30729;49.486;10.792;2022-10-16T06:23:06;97723.38;;;15.32;100.00
44996;BME280;30729;49.486;10.792;2022-10-16T06:25:31;97720.84;;;15.34;100.00
44996;BME280;30729;49.486;10.792;2022-10-16T06:27:57;97728.72;;;15.30;100.00
44996;BME280;30729;49.486;10.792;2022-10-16T06:30:22;97730.25;;;15.31;100.00
44996;BME280;30729;49.486;10.792;2022-10-16T06:32:47;97723.06;;;15.24;100.00
44996;BME280;30729;49.486;10.792;2022-10-16T06:35:13;97724.81;;;15.22;100.00
44996;BME280;30729;49.486;10.792;2022-10-16T06:37:38;97736.38;;;15.29;100.00
44996;BME280;30729;49.486;10.792;2022-10-16T06:40:04;97724.66;;;15.31;100.00
44996;BME280;30729;49.486;10.792;2022-10-16T06:42:30;97730.25;;;15.31;100.00
44996;BME280;30729;49.486;10.792;2022-10-16T06:44:56;97729.47;;;15.25;100.00
44996;BME280;30729;49.486;10.792;2022-10-16T06:47:21;97744.47;;;15.22;100.00
44996;BME280;30729;49.486;10.792;2022-10-16T06:49:46;97751.34;;;15.21;100.00
44996;BME280;30729;49.486;10.792;2022-10-16T06:52:12;97752.63;;;15.20;100.00
44996;BME280;30729;49.486;10.792;2022-10-16T06:54:37;97752.63;;;15.20;100.00
44996;BME280;30729;49.486;10.792;2022-10-16T06:57:03;97762.03;;;15.17;100.00
44996;BME280;30729;49.486;10.792;2022-10-16T06:59:28;97773.50;;;15.19;100.00
44996;BME280;30729;49.486;10.792;2022-10-16T07:01:53;97773.25;;;15.17;100.00
44996;BME280;30729;49.486;10.792;2022-10-16T07:04:19;97785.72;;;15.16;100.00
44996;BME280;30729;49.486;10.792;2022-10-16T07:06:44;97777.66;;;15.23;100.00
44996;BME280;30729;49.486;10.792;2022-10-16T07:09:10;97771.09;;;15.32;100.00
44996;BME280;30729;49.486;10.792;2022-10-16T07:11:37;97776.00;;;15.37;100.00
44996;BME280;30729;49.486;10.792;2022-10-16T07:14:03;97785.66;;;15.36;100.00
44996;BME280;30729;49.486;10.792;2022-10-16T07:16:30;97798.75;;;15.45;100.00
44996;BME280;30729;49.486;10.792;2022-10-16T07:19:00;97801.94;;;15.58;100.00
44996;BME280;30729;49.486;10.792;2022-10-16T07:21:28;97801.94;;;15.58;100.00
44996;BME280;30729;49.486;10.792;2022-10-16T07:23:58;97809.66;;;15.63;100.00
44996;BME280;30729;49.486;10.792;2022-10-16T07:26:25;97811.41;;;15.60;100.00
44996;BME280;30729;49.486;10.792;2022-10-16T07:28:51;97812.00;;;15.65;100.00
44996;BME280;30729;49.486;10.792;2022-10-16T07:31:18;97801.31;;;15.69;100.00
44996;BME280;30729;49.486;10.792;2022-10-16T07:33:45;97793.88;;;15.66;100.00
44996;BME280;30729;49.486;10.792;2022-10-16T07:36:12;97793.16;;;15.71;100.00
44996;BME280;30729;49.486;10.792;2022-10-16T07:38:37;97785.75;;;15.68;100.00
44996;BME280;30729;49.486;10.792;2022-10-16T07:41:05;97796.97;;;15.68;100.00
44996;BME280;30729;49.486;10.792;2022-10-16T07:43:32;97804.75;;;15.84;100.00
44996;BME280;30729;49.486;10.792;2022-10-16T07:45:57;97805.56;;;15.90;100.00
44996;BME280;30729;49.486;10.792;2022-10-16T07:48:25;97810.91;;;15.88;100.00
44996;BME280;30729;49.486;10.792;2022-10-16T07:50:51;97809.19;;;15.96;100.00
44996;BME280;30729;49.486;10.792;2022-10-16T07:53:17;97821.50;;;16.04;100.00
44996;BME280;30729;49.486;10.792;2022-10-16T07:55:42;97829.97;;;16.10;100.00
44996;BME280;30729;49.486;10.792;2022-10-16T07:58:08;97827.66;;;16.03;100.00
44996;BME280;30729;49.486;10.792;2022-10-16T08:00:35;97838.16;;;16.08;100.00
44996;BME280;30729;49.486;10.792;2022-10-16T08:03:00;97839.34;;;16.01;100.00
44996;BME280;30729;49.486;10.792;2022-10-16T08:05:27;97833.28;;;16.08;100.00
44996;BME280;30729;49.486;10.792;2022-10-16T08:07:53;97833.28;;;16.08;100.00
44996;BME280;30729;49.486;10.792;2022-10-16T08:10:20;97836.91;;;16.15;100.00
44996;BME280;30729;49.486;10.792;2022-10-16T08:12:46;97832.38;;;16.23;100.00
44996;BME280;30729;49.486;10.792;2022-10-16T08:15:12;97825.28;;;16.33;100.00
44996;BME280;30729;49.486;10.792;2022-10-16T08:17:37;97828.38;;;16.35;100.00
44996;BME280;30729;49.486;10.792;2022-10-16T08:20:03;97826.13;;;16.45;100.00
44996;BME280;30729;49.486;10.792;2022-10-16T08:22:28;97829.97;;;16.47;100.00
44996;BME280;30729;49.486;10.792;2022-10-16T08:24:54;97830.53;;;16.57;100.00
44996;BME280;30729;49.486;10.792;2022-10-16T08:27:19;97834.16;;;16.63;100.00
44996;BME280;30729;49.486;10.792;2022-10-16T08:29:45;97835.72;;;16.70;100.00
44996;BME280;30729;49.486;10.792;2022-10-16T08:32:10;97845.50;;;16.80;100.00
44996;BME280;30729;49.486;10.792;2022-10-16T08:34:36;97846.25;;;16.75;100.00
44996;BME280;30729;49.486;10.792;2022-10-16T08:37:01;97850.91;;;16.83;100.00
44996;BME280;30729;49.486;10.792;2022-10-16T08:39:27;97852.13;;;16.77;100.00
44996;BME280;30729;49.486;10.792;2022-10-16T08:42:14;97854.22;;;16.82;100.00
44996;BME280;30729;49.486;10.792;2022-10-16T08:45:33;97847.88;;;16.98;100.00
44996;BME280;30729;49.486;10.792;2022-10-16T08:47:44;97847.16;;;17.03;100.00
44996;BME280;30729;49.486;10.792;2022-10-16T08:50:17;97851.75;;;17.06;100.00
44996;BME280;30729;49.486;10.792;2022-10-16T08:52:44;97849.72;;;17.07;100.00
44996;BME280;30729;49.486;10.792;2022-10-16T08:55:39;97855.16;;;17.22;100.00
44996;BME280;30729;49.486;10.792;2022-10-16T08:58:29;97853.88;;;17.23;100.00
44996;BME280;30729;49.486;10.792;2022-10-16T09:01:00;97859.28;;;17.32;100.00
44996;BME280;30729;49.486;10.792;2022-10-16T09:11:53;97860.50;;;17.20;100.00
44996;BME280;30729;49.486;10.792;2022-10-16T09:16:57;97881.50;;;17.24;100.00
44996;BME280;30729;49.486;10.792;2022-10-16T09:19:38;97877.94;;;17.24;100.00
44996;BME280;30729;49.486;10.792;2022-10-16T09:22:16;97883.09;;;17.31;100.00
44996;BME280;30729;49.486;10.792;2022-10-16T09:24:42;97886.59;;;17.15;100.00
44996;BME280;30729;49.486;10.792;2022-10-16T09:27:11;97884.31;;;17.19;100.00
44996;BME280;30729;49.486;10.792;2022-10-16T09:29:37;97885.84;;;17.20;100.00
44996;BME280;30729;49.486;10.792;2022-10-16T09:32:21;97884.84;;;17.23;100.00
44996;BME280;30729;49.486;10.792;2022-10-16T09:34:52;97883.59;;;17.35;100.00
44996;BME280;30729;49.486;10.792;2022-10-16T09:37:21;97879.50;;;17.36;100.00
44996;BME280;30729;49.486;10.792;2022-10-16T09:39:52;97884.63;;;17.37;100.00
44996;BME280;30729;49.486;10.792;2022-10-16T09:42:19;97883.09;;;17.42;100.00
44996;BME280;30729;49.486;10.792;2022-10-16T09:44:49;97890.25;;;17.32;100.00
44996;BME280;30729;49.486;10.792;2022-10-16T09:47:18;97886.38;;;17.29;100.00
44996;BME280;30729;49.486;10.792;2022-10-16T09:49:53;97887.19;;;17.41;100.00
44996;BME280;30729;49.486;10.792;2022-10-16T09:52:19;97883.66;;;17.52;100.00
44996;BME280;30729;49.486;10.792;2022-10-16T09:54:55;97888.53;;;17.57;100.00
44996;BME280;30729;49.486;10.792;2022-10-16T09:57:21;97892.63;;;17.61;100.00
44996;BME280;30729;49.486;10.792;2022-10-16T09:59:57;97895.75;;;17.69;100.00
44996;BME280;30729;49.486;10.792;2022-10-16T10:02:34;97886.03;;;17.76;100.00
44996;BME280;30729;49.486;10.792;2022-10-16T10:05:00;97889.66;;;17.93;100.00
44996;BME280;30729;49.486;10.792;2022-10-16T10:07:28;97883.25;;;17.98;100.00
44996;BME280;30729;49.486;10.792;2022-10-16T10:09:58;97895.31;;;18.04;100.00
44996;BME280;30729;49.486;10.792;2022-10-16T10:12:25;97895.03;;;18.19;100.00
44996;BME280;30729;49.486;10.792;2022-10-16T10:14:56;97902.19;;;18.03;100.00
44996;BME280;30729;49.486;10.792;2022-10-16T10:17:25;97898.88;;;18.05;100.00
44996;BME280;30729;49.486;10.792;2022-10-16T10:33:19;97901.44;;;18.36;100.00
44996;BME280;30729;49.486;10.792;2022-10-16T10:38:25;97907.59;;;18.46;100.00
44996;BME280;30729;49.486;10.792;2022-10-16T10:47:00;97898.34;;;18.62;100.00
44996;BME280;30729;49.486;10.792;2022-10-16T10:50:16;97908.88;;;18.62;100.00
44996;BME280;30729;49.486;10.792;2022-10-16T10:55:37;97901.41;;;18.65;100.00
44996;BME280;30729;49.486;10.792;2022-10-16T10:58:15;97912.44;;;18.74;100.00
44996;BME280;30729;49.486;10.792;2022-10-16T11:00:52;97922.19;;;18.73;100.00
44996;BME280;30729;49.486;10.792;2022-10-16T11:08:26;97913.72;;;18.84;100.00
44996;BME280;30729;49.486;10.792;2022-10-16T11:11:01;97912.88;;;19.00;100.00
44996;BME280;30729;49.486;10.792;2022-10-16T11:13:53;97915.72;;;19.06;100.00
44996;BME280;30729;49.486;10.792;2022-10-16T11:16:26;97914.94;;;19.00;100.00
44996;BME280;30729;49.486;10.792;2022-10-16T11:19:05;97915.47;;;18.98;100.00
44996;BME280;30729;49.486;10.792;2022-10-16T11:21:43;97912.94;;;18.89;100.00
44996;BME280;30729;49.486;10.792;2022-10-16T11:26:55;97922.91;;;19.01;100.00
44996;BME280;30729;49.486;10.792;2022-10-16T11:29:27;97924.09;;;19.23;100.00
44996;BME280;30729;49.486;10.792;2022-10-16T11:31:58;97921.91;;;19.68;100.00
44996;BME280;30729;49.486;10.792;2022-10-16T11:34:32;97914.84;;;20.22;100.00
44996;BME280;30729;49.486;10.792;2022-10-16T11:39:31;97918.41;;;19.92;100.00
44996;BME280;30729;49.486;10.792;2022-10-16T11:42:07;97920.03;;;20.18;100.00
44996;BME280;30729;49.486;10.792;2022-10-16T11:44:59;97921.75;;;20.26;100.00
44996;BME280;30729;49.486;10.792;2022-10-16T11:52:39;97921.22;;;20.64;100.00
44996;BME280;30729;49.486;10.792;2022-10-16T11:55:16;97917.41;;;21.34;100.00
44996;BME280;30729;49.486;10.792;2022-10-16T11:57:47;97919.31;;;21.45;100.00
44996;BME280;30729;49.486;10.792;2022-10-16T12:03:49;97915.19;;;22.22;100.00
44996;BME280;30729;49.486;10.792;2022-10-16T12:08:51;97905.34;;;22.23;100.00
44996;BME280;30729;49.486;10.792;2022-10-16T12:11:30;97905.16;;;22.79;100.00
44996;BME280;30729;49.486;10.792;2022-10-16T12:16:38;97911.22;;;23.29;100.00
44996;BME280;30729;49.486;10.792;2022-10-16T12:19:13;97914.78;;;23.69;100.00
44996;BME280;30729;49.486;10.792;2022-10-16T12:21:39;97911.03;;;23.74;100.00
44996;BME280;30729;49.486;10.792;2022-10-16T12:24:05;97906.97;;;23.83;100.00
44996;BME280;30729;49.486;10.792;2022-10-16T12:26:33;97906.63;;;22.99;100.00
44996;BME280;30729;49.486;10.792;2022-10-16T12:29:30;97905.75;;;21.76;100.00
44996;BME280;30729;49.486;10.792;2022-10-16T12:31:57;97917.41;;;21.29;100.00
44996;BME280;30729;49.486;10.792;2022-10-16T12:34:36;97919.47;;;21.34;100.00
44996;BME280;30729;49.486;10.792;2022-10-16T12:37:12;97910.22;;;21.28;100.00
44996;BME280;30729;49.486;10.792;2022-10-16T12:39:39;97911.34;;;21.44;100.00
44996;BME280;30729;49.486;10.792;2022-10-16T12:42:21;97898.50;;;21.43;100.00
44996;BME280;30729;49.486;10.792;2022-10-16T12:44:47;97903.84;;;21.46;100.00
44996;BME280;30729;49.486;10.792;2022-10-16T12:47:22;97908.13;;;21.34;100.00
44996;BME280;30729;49.486;10.792;2022-10-16T12:49:50;97907.41;;;21.28;100.00
44996;BME280;30729;49.486;10.792;2022-10-16T12:52:36;97903.06;;;21.46;100.00
44996;BME280;30729;49.486;10.792;2022-10-16T12:55:03;97903.38;;;21.80;100.00
44996;BME280;30729;49.486;10.792;2022-10-16T13:00:24;97897.22;;;23.18;100.00
44996;BME280;30729;49.486;10.792;2022-10-16T13:06:13;97892.00;;;24.58;100.00
44996;BME280;30729;49.486;10.792;2022-10-16T13:14:46;97888.47;;;24.24;100.00
44996;BME280;30729;49.486;10.792;2022-10-16T13:28:30;97925.50;;;24.10;100.00
44996;BME280;30729;49.486;10.792;2022-10-16T13:30:59;97915.91;;;24.00;100.00
44996;BME280;30729;49.486;10.792;2022-10-16T13:33:42;97915.59;;;24.67;100.00
44996;BME280;30729;49.486;10.792;2022-10-16T13:36:24;97923.53;;;25.39;100.00
44996;BME280;30729;49.486;10.792;2022-10-16T13:41:25;97925.53;;;25.59;100.00
44996;BME280;30729;49.486;10.792;2022-10-16T13:43:52;97917.94;;;25.61;100.00
44996;BME280;30729;49.486;10.792;2022-10-16T13:46:22;97921.09;;;25.79;100.00
44996;BME280;30729;49.486;10.792;2022-10-16T13:49:01;97921.97;;;25.30;100.00
44996;BME280;30729;49.486;10.792;2022-10-16T13:51:28;97926.97;;;25.45;100.00
44996;BME280;30729;49.486;10.792;2022-10-16T13:53:57;97924.47;;;24.84;100.00
44996;BME280;30729;49.486;10.792;2022-10-16T13:56:29;97922.19;;;25.76;100.00
44996;BME280;30729;49.486;10.792;2022-10-16T14:01:30;97925.13;;;25.55;100.00
44996;BME280;30729;49.486;10.792;2022-10-16T14:04:08;97928.31;;;25.80;100.00
44996;BME280;30729;49.486;10.792;2022-10-16T14:06:35;97921.91;;;25.95;100.00
44996;BME280;30729;49.486;10.792;2022-10-16T14:09:06;97927.63;;;26.02;100.00
44996;BME280;30729;49.486;10.792;2022-10-16T14:11:33;97919.72;;;26.39;100.00
44996;BME280;30729;49.486;10.792;2022-10-16T14:13:59;97923.06;;;25.55;100.00
44996;BME280;30729;49.486;10.792;2022-10-16T14:16:27;97927.34;;;25.41;100.00
44996;BME280;30729;49.486;10.792;2022-10-16T14:18:59;97922.97;;;25.40;100.00
44996;BME280;30729;49.486;10.792;2022-10-16T14:21:25;97934.91;;;24.05;100.00
44996;BME280;30729;49.486;10.792;2022-10-16T14:23:52;97936.31;;;23.78;100.00
44996;BME280;30729;49.486;10.792;2022-10-16T14:26:20;97931.84;;;23.69;100.00
44996;BME280;30729;49.486;10.792;2022-10-16T14:28:48;97936.22;;;23.04;100.00
44996;BME280;30729;49.486;10.792;2022-10-16T14:33:53;97932.59;;;22.13;100.00